Time;durP1;ratioP1;P1;durP2;ratioP2;P2;SDS_P1;SDS_P2;PMS_P1;PMS_P2;Temp;Humidity;BMP_temperature;BMP_pressure;BME280_temperature;BME280_humidity;BME280_pressure;Samples;Min_cycle;Max_cycle;Signal;HPM_P1;HPM_P2
2021/05/06 00:02:20;;;;;;;15.35;8.65;;;;;;;3.92;86.57;101071.63;5019672;28;20150;-71
2021/05/06 00:30:13;;;;;;;24.13;12.02;;;;;;;3.95;87.56;101070.72;5021512;28;20065;-79
2021/05/06 00:32:43;;;;;;;21.90;11.98;;;;;;;3.95;86.98;101057.50;5024587;28;20060;-81
2021/05/06 00:35:11;;;;;;;23.50;12.95;;;;;;;3.90;86.86;101060.19;5025298;28;20057;-80
2021/05/06 00:37:46;;;;;;;19.90;10.48;;;;;;;3.90;87.06;101061.06;5022551;28;20355;-80
2021/05/06 00:40:17;;;;;;;19.73;9.88;;;;;;;3.87;87.87;101062.81;5038644;28;20057;-80
2021/05/06 00:43:12;;;;;;;21.23;11.65;;;;;;;3.84;87.05;101058.41;5019875;28;20162;-81
2021/05/06 00:46:15;;;;;;;22.50;11.80;;;;;;;3.82;87.87;101067.22;5025349;28;20069;-81
2021/05/06 00:54:26;;;;;;;23.05;12.05;;;;;;;3.66;88.54;101053.13;5021265;28;20558;-81
2021/05/06 00:57:01;;;;;;;27.05;14.52;;;;;;;3.66;88.99;101053.13;5036538;28;20419;-81
2021/05/06 01:05:20;;;;;;;19.58;11.85;;;;;;;3.52;88.42;101055.78;4980150;28;20124;-72
2021/05/06 01:08:01;;;;;;;23.50;13.60;;;;;;;3.49;88.53;101055.78;4978668;28;20568;-72
2021/05/06 01:10:43;;;;;;;27.55;13.88;;;;;;;3.44;88.93;101046.97;5001329;28;20361;-72
2021/05/06 01:13:13;;;;;;;28.17;15.55;;;;;;;3.43;89.28;101055.78;5018066;28;20062;-71
2021/05/06 01:15:40;;;;;;;30.60;14.38;;;;;;;3.39;89.15;101054.00;5022399;28;20068;-72
2021/05/06 01:18:07;;;;;;;26.08;15.18;;;;;;;3.33;89.20;101052.25;5018923;28;20080;-71
2021/05/06 01:20:34;;;;;;;26.67;14.40;;;;;;;3.27;89.34;101050.50;5022063;28;20068;-73
2021/05/06 01:23:02;;;;;;;31.52;15.98;;;;;;;3.23;89.53;101054.00;5016771;28;20061;-72
2021/05/06 01:25:29;;;;;;;27.17;14.18;;;;;;;3.23;90.21;101051.34;5020974;28;20065;-71
2021/05/06 01:28:00;;;;;;;30.42;15.65;;;;;;;3.16;89.80;101046.94;5017455;28;20053;-80
2021/05/06 01:30:33;;;;;;;28.63;15.65;;;;;;;3.14;90.32;101043.44;5019472;28;20498;-81
2021/05/06 01:33:08;;;;;;;27.70;16.63;;;;;;;3.09;90.13;101042.56;5022942;28;20258;-81
2021/05/06 01:35:39;;;;;;;33.05;17.48;;;;;;;3.02;90.55;101036.38;5034861;28;20123;-79
2021/05/06 01:38:24;;;;;;;35.58;19.50;;;;;;;3.01;91.03;101031.09;5020876;28;20053;-78
2021/05/06 01:41:09;;;;;;;36.55;19.30;;;;;;;3.00;91.15;101040.78;5017621;28;20152;-71
2021/05/06 01:43:44;;;;;;;33.63;19.35;;;;;;;2.92;91.61;101035.47;5020523;28;20081;-71
2021/05/06 01:46:49;;;;;;;31.77;16.38;;;;;;;2.87;90.96;101021.41;5017299;28;20053;-71
2021/05/06 01:57:40;;;;;;;33.92;16.15;;;;;;;2.74;91.58;101020.50;5019922;28;20072;-71
2021/05/06 02:00:11;;;;;;;31.27;15.88;;;;;;;2.68;90.76;101028.38;5015538;28;20931;-72
2021/05/06 02:02:38;;;;;;;38.05;19.25;;;;;;;2.67;91.24;101025.72;5019586;28;20340;-71
2021/05/06 02:05:06;;;;;;;33.45;17.85;;;;;;;2.63;91.27;101031.88;5019676;28;20057;-71
2021/05/06 02:07:36;;;;;;;39.85;20.25;;;;;;;2.55;90.65;101032.72;5018283;28;20096;-71
2021/05/06 02:10:05;;;;;;;40.38;19.25;;;;;;;2.55;91.87;101032.72;5035581;28;20130;-71
2021/05/06 02:12:32;;;;;;;45.63;20.85;;;;;;;2.57;92.55;101030.09;5018200;28;20116;-71
2021/05/06 02:15:03;;;;;;;39.63;19.00;;;;;;;2.50;92.37;101025.66;5020856;28;20103;-72
2021/05/06 02:17:31;;;;;;;35.15;17.58;;;;;;;2.45;91.88;101025.63;5017640;28;20062;-71
2021/05/06 02:19:58;;;;;;;38.03;19.80;;;;;;;2.43;91.95;101032.66;5019902;28;20114;-71
2021/05/06 02:22:25;;;;;;;35.75;17.98;;;;;;;2.39;92.32;101030.91;5019293;28;20057;-71
2021/05/06 02:24:52;;;;;;;39.15;19.52;;;;;;;2.35;92.53;101023.84;5018479;28;20092;-70
2021/05/06 02:27:20;;;;;;;32.70;17.20;;;;;;;2.33;92.86;101023.84;5018740;28;20062;-70
2021/05/06 02:29:48;;;;;;;39.88;20.38;;;;;;;2.31;92.76;101022.94;5034431;28;20061;-70
2021/05/06 02:32:16;;;;;;;41.28;20.95;;;;;;;2.35;92.99;101026.47;5017143;28;20053;-70
2021/05/06 02:34:45;;;;;;;40.67;20.52;;;;;;;2.33;92.88;101023.84;5035157;28;20068;-70
2021/05/06 02:37:13;;;;;;;41.33;18.45;;;;;;;2.29;92.71;101018.56;5015843;28;20409;-71
2021/05/06 02:39:41;;;;;;;45.25;19.40;;;;;;;2.29;92.80;101018.56;5020312;28;20053;-70
2021/05/06 02:42:08;;;;;;;42.67;20.45;;;;;;;2.29;93.17;101013.31;5017587;28;20155;-71
2021/05/06 02:44:36;;;;;;;34.90;16.75;;;;;;;2.20;92.68;101008.88;5020523;28;20154;-71
2021/05/06 02:47:04;;;;;;;37.13;18.48;;;;;;;2.19;92.59;101017.63;5018284;28;20062;-70
2021/05/06 02:49:31;;;;;;;36.55;17.38;;;;;;;2.18;92.85;101013.22;5024101;28;20470;-70
2021/05/06 02:52:05;;;;;;;40.88;19.17;;;;;;;2.15;93.12;101015.88;5024482;28;20066;-71
2021/05/06 02:54:38;;;;;;;41.83;20.08;;;;;;;2.17;93.12;101022.00;5020455;28;20065;-70
2021/05/06 02:57:11;;;;;;;37.75;19.13;;;;;;;2.13;93.17;101013.22;5022500;28;20270;-70
2021/05/06 03:02:48;;;;;;;38.22;19.58;;;;;;;2.16;93.89;101004.44;5021577;28;20061;-70
2021/05/06 03:05:15;;;;;;;43.78;20.02;;;;;;;2.14;93.62;100993.03;5022092;28;20068;-70
2021/05/06 03:07:46;;;;;;;43.88;20.33;;;;;;;2.13;93.38;100992.16;5022681;28;20111;-70
2021/05/06 03:10:23;;;;;;;44.67;21.42;;;;;;;2.07;93.26;100993.88;5021613;28;20103;-70
2021/05/06 03:13:24;;;;;;;40.42;19.98;;;;;;;2.10;93.28;101000.03;5022352;28;20329;-70
2021/05/06 03:22:39;;;;;;;46.55;23.33;;;;;;;2.11;93.57;100988.66;5036274;28;20100;-70
2021/05/06 03:24:21;;;;;;;37.08;17.17;;;;;;;2.05;93.94;100989.47;5022154;28;20079;-70
2021/05/06 03:26:48;;;;;;;33.63;17.25;;;;;;;1.97;93.55;100983.28;5035630;28;20078;-76
2021/05/06 03:29:20;;;;;;;39.58;17.10;;;;;;;1.95;92.64;100994.69;5021020;28;20135;-76
2021/05/06 03:34:51;;;;;;;44.50;18.02;;;;;;;1.95;92.92;100984.16;5019726;28;20167;-76
2021/05/06 03:43:12;;;;;;;39.40;17.27;;;;;;;1.90;92.89;100991.16;5023052;28;20068;-76
2021/05/06 03:46:18;;;;;;;45.13;19.65;;;;;;;1.97;93.24;100982.41;5019485;28;20449;-76
2021/05/06 04:16:48;;;;;;;37.03;17.45;;;;;;;2.89;94.19;100968.69;5019881;28;21085;-79
2021/05/06 04:21:29;;;;;;;43.22;21.55;;;;;;;2.93;93.95;100967.84;5020481;28;20053;-79
2021/05/06 04:25:33;;;;;;;34.15;17.20;;;;;;;2.93;93.72;100967.84;5019801;28;20089;-78
2021/05/06 04:28:03;;;;;;;47.47;24.08;;;;;;;3.19;94.18;100949.38;5018704;28;20061;-78
2021/05/06 04:30:57;;;;;;;50.03;23.27;;;;;;;3.20;93.76;100950.25;5021524;28;20053;-79
2021/05/06 04:36:13;;;;;;;42.97;19.65;;;;;;;3.10;93.47;100952.91;5018620;28;20057;-71
2021/05/06 04:38:40;;;;;;;37.95;19.50;;;;;;;3.13;93.43;100958.19;5020431;28;20119;-71
2021/05/06 04:41:26;;;;;;;31.48;15.75;;;;;;;3.15;93.24;100951.16;5018643;28;20057;-71
2021/05/06 04:54:59;;;;;;;29.30;13.88;;;;;;;3.22;92.65;100948.50;5019335;28;20065;-73
2021/05/06 05:05:43;;;;;;;25.92;13.07;;;;;;;3.40;91.78;100947.63;5013850;28;20068;-80
2021/05/06 05:08:14;;;;;;;27.65;14.25;;;;;;;3.55;91.27;100947.59;5020886;28;20346;-81
2021/05/06 05:10:49;;;;;;;28.08;12.85;;;;;;;3.63;91.26;100944.97;5018606;28;20066;-80
2021/05/06 05:13:33;;;;;;;27.05;13.38;;;;;;;3.77;90.83;100956.34;5020438;28;20065;-80
2021/05/06 05:19:13;;;;;;;26.25;14.38;;;;;;;4.23;89.73;100950.06;5036039;28;20412;-80
2021/05/06 05:24:32;;;;;;;19.95;11.27;;;;;;;4.71;87.65;100939.22;5006458;28;20064;-80
2021/05/06 05:27:00;;;;;;;22.30;10.40;;;;;;;4.61;87.92;100941.03;5018905;28;20475;-80
2021/05/06 05:29:27;;;;;;;21.42;10.77;;;;;;;4.62;88.61;100942.81;5031847;28;20057;-80
2021/05/06 05:31:54;;;;;;;20.33;9.95;;;;;;;4.64;87.88;100943.69;5017905;28;20053;-80
2021/05/06 05:34:26;;;;;;;21.98;10.13;;;;;;;4.74;87.82;100940.09;5022596;28;20195;-79
2021/05/06 05:36:55;;;;;;;15.98;8.68;;;;;;;5.12;87.14;100935.41;5020247;28;20244;-78
2021/05/06 05:39:28;;;;;;;17.05;9.07;;;;;;;5.52;85.02;100937.72;5020807;28;20060;-78
2021/05/06 05:48:15;;;;;;;16.88;8.23;;;;;;;5.54;85.45;100939.44;5033420;28;20073;-78
2021/05/06 05:56:08;;;;;;;18.33;10.00;;;;;;;6.92;80.43;100934.22;5017807;28;20072;-72
2021/05/06 05:58:35;;;;;;;17.33;9.07;;;;;;;6.58;80.17;100944.44;5020559;28;20064;-72
2021/05/06 06:01:02;;;;;;;18.35;9.88;;;;;;;6.20;82.18;100947.59;5016593;28;20065;-73
2021/05/06 06:03:29;;;;;;;17.70;9.18;;;;;;;6.47;81.60;100939.31;5020266;28;20136;-72
2021/05/06 06:05:56;;;;;;;15.50;8.60;;;;;;;6.77;80.50;100942.41;5019179;28;20061;-74
2021/05/06 06:08:25;;;;;;;16.48;9.05;;;;;;;6.73;81.57;100946.88;5017719;28;20119;-72
2021/05/06 06:10:52;;;;;;;15.02;8.50;;;;;;;7.38;81.93;100937.88;5033647;28;20526;-72
2021/05/06 06:13:19;;;;;;;18.63;10.32;;;;;;;6.95;80.22;100941.25;5018756;28;20065;-79
2021/05/06 06:15:56;;;;;;;19.17;9.70;;;;;;;7.47;79.50;100943.06;5035675;28;20053;-79
2021/05/06 06:18:31;;;;;;;17.73;9.25;;;;;;;7.79;78.13;100935.41;5019333;28;20065;-78
2021/05/06 06:21:05;;;;;;;20.10;9.82;;;;;;;7.41;78.57;100932.53;5020756;28;20069;-79
2021/05/06 06:23:32;;;;;;;22.50;11.70;;;;;;;7.77;78.02;100927.44;5022317;28;20061;-79
2021/05/06 06:25:59;;;;;;;23.70;12.27;;;;;;;7.93;76.91;100927.16;5025561;28;20060;-80
2021/05/06 06:28:27;;;;;;;24.58;12.15;;;;;;;8.26;76.02;100935.34;5036244;28;20060;-80
2021/05/06 06:30:55;;;;;;;20.98;12.32;;;;;;;8.35;74.65;100927.19;5025938;28;20057;-81
2021/05/06 06:33:21;;;;;;;22.27;11.90;;;;;;;8.29;74.11;100936.19;5020098;28;20249;-80
2021/05/06 06:35:51;;;;;;;19.92;11.85;;;;;;;8.73;74.09;100931.66;5024895;28;20061;-80
2021/05/06 06:38:18;;;;;;;24.15;12.45;;;;;;;8.76;72.34;100930.75;5021064;28;20140;-81
2021/05/06 06:40:45;;;;;;;22.90;11.77;;;;;;;8.93;72.93;100927.69;5023556;28;20458;-80
2021/05/06 06:43:12;;;;;;;25.20;12.80;;;;;;;9.42;71.51;100922.94;5020194;28;20068;-79
2021/05/06 06:45:39;;;;;;;23.80;13.15;;;;;;;9.18;70.27;100924.41;5023038;28;20053;-80
2021/05/06 06:48:09;;;;;;;27.13;14.18;;;;;;;9.12;71.32;100923.66;5040192;28;20053;-80
2021/05/06 06:50:35;;;;;;;30.50;14.30;;;;;;;8.87;71.18;100926.06;5017615;28;20076;-74
2021/05/06 06:53:03;;;;;;;29.30;15.02;;;;;;;9.19;71.00;100927.03;5039157;28;20419;-73
2021/05/06 06:55:30;;;;;;;32.72;17.25;;;;;;;8.77;71.14;100927.19;5012394;28;20088;-73
2021/05/06 06:58:07;;;;;;;29.00;16.15;;;;;;;9.16;70.33;100916.50;5018166;28;20456;-72
2021/05/06 07:00:34;;;;;;;28.42;15.60;;;;;;;9.37;67.61;100919.53;5016761;28;20072;-80
2021/05/06 07:03:01;;;;;;;33.45;14.65;;;;;;;9.69;68.72;100918.66;5021054;28;20514;-80
2021/05/06 07:05:28;;;;;;;27.95;15.40;;;;;;;10.35;67.46;100918.59;5017045;28;20111;-80
2021/05/06 07:08:14;;;;;;;23.00;13.30;;;;;;;10.06;65.91;100917.63;5032142;28;20331;-81
2021/05/06 07:10:42;;;;;;;26.08;14.38;;;;;;;9.80;67.05;100918.38;5013552;28;20504;-80
2021/05/06 07:13:09;;;;;;;26.85;14.57;;;;;;;9.88;64.55;100916.38;5020256;28;20084;-80
2021/05/06 07:15:36;;;;;;;27.10;14.27;;;;;;;9.90;65.66;100915.38;5018415;28;20145;-79
2021/05/06 07:18:03;;;;;;;24.52;13.80;;;;;;;9.82;66.07;100922.72;5033020;28;20621;-79
2021/05/06 07:20:31;;;;;;;21.73;13.13;;;;;;;10.12;65.34;100914.78;5022098;28;20503;-80
2021/05/06 07:22:57;;;;;;;23.88;13.85;;;;;;;10.12;64.54;100914.78;5032453;28;20065;-79
2021/05/06 07:25:27;;;;;;;26.45;15.10;;;;;;;10.21;62.72;100908.31;5018258;28;20057;-79
2021/05/06 07:27:55;;;;;;;28.90;16.15;;;;;;;10.29;64.47;100908.97;5019239;28;20164;-79
2021/05/06 07:30:24;;;;;;;26.15;15.55;;;;;;;10.09;62.86;100907.75;5016599;28;20057;-77
2021/05/06 07:32:52;;;;;;;25.20;14.77;;;;;;;9.58;64.95;100921.59;5024404;28;20092;-79
2021/05/06 07:35:21;;;;;;;20.50;12.48;;;;;;;9.48;64.79;100912.09;5033713;28;20065;-78
2021/05/06 07:37:49;;;;;;;21.70;12.80;;;;;;;10.05;63.32;100913.22;5037394;28;20069;-78
2021/05/06 07:40:20;;;;;;;23.77;12.38;;;;;;;9.38;64.99;100914.16;5022518;28;20157;-77
2021/05/06 07:42:51;;;;;;;23.73;13.00;;;;;;;10.00;61.81;100907.16;5021972;28;20119;-78
2021/05/06 07:45:20;;;;;;;25.25;14.00;;;;;;;10.45;62.77;100904.06;5020457;28;20057;-77
2021/05/06 07:47:49;;;;;;;18.77;12.02;;;;;;;10.53;61.24;100904.69;5019284;28;20061;-77
2021/05/06 07:50:21;;;;;;;23.30;12.82;;;;;;;10.29;61.15;100901.81;5032703;28;20464;-78
2021/05/06 07:52:51;;;;;;;22.13;12.25;;;;;;;10.65;60.23;100890.09;5018637;28;20148;-77
2021/05/06 07:55:21;;;;;;;21.88;13.75;;;;;;;10.52;61.47;100899.41;5021521;28;20338;-77
2021/05/06 07:57:48;;;;;;;26.02;15.57;;;;;;;10.49;61.64;100896.84;5018227;28;20196;-79
2021/05/06 08:00:19;;;;;;;25.50;15.77;;;;;;;10.62;61.02;100892.88;5022517;28;20057;-78
2021/05/06 08:02:47;;;;;;;27.48;15.70;;;;;;;10.48;62.04;100897.78;5017265;28;20100;-79
2021/05/06 08:05:15;;;;;;;28.90;15.32;;;;;;;10.24;59.86;100887.75;5035226;28;20062;-77
2021/05/06 08:07:42;;;;;;;29.65;14.90;;;;;;;9.95;61.36;100890.41;5018559;28;20057;-76
2021/05/06 08:10:11;;;;;;;25.85;14.20;;;;;;;10.18;62.42;100881.72;5020868;28;20065;-70
2021/05/06 08:12:38;;;;;;;26.30;14.00;;;;;;;9.98;61.06;100883.19;5020428;28;20597;-70
2021/05/06 08:15:07;;;;;;;24.98;14.32;;;;;;;9.76;62.42;100874.06;5018836;28;20080;-70
2021/05/06 08:17:36;;;;;;;29.30;15.20;;;;;;;9.95;63.56;100879.75;5020462;28;20069;-70
2021/05/06 08:20:05;;;;;;;22.70;14.32;;;;;;;10.34;60.47;100872.38;5017783;28;20057;-70
2021/05/06 08:22:33;;;;;;;24.70;15.70;;;;;;;10.40;61.05;100858.88;5020317;28;20058;-70
2021/05/06 08:25:00;;;;;;;27.58;14.75;;;;;;;10.17;60.75;100864.88;5015322;28;20309;-70
2021/05/06 08:27:27;;;;;;;21.15;13.05;;;;;;;9.84;59.87;100877.38;5022311;28;20185;-70
2021/05/06 08:29:54;;;;;;;23.50;13.82;;;;;;;9.67;61.76;100872.50;5016554;28;20062;-76
2021/05/06 08:32:21;;;;;;;26.13;13.90;;;;;;;9.55;62.87;100879.06;5019547;28;20625;-76
2021/05/06 08:34:49;;;;;;;32.63;16.98;;;;;;;9.23;67.50;100883.47;5018893;28;20057;-77
2021/05/06 08:37:16;;;;;;;27.88;15.02;;;;;;;9.32;66.76;100877.03;5020406;28;20049;-79
2021/05/06 08:39:44;;;;;;;27.45;15.85;;;;;;;9.18;67.22;100885.38;5020456;28;20072;-80
2021/05/06 08:42:12;;;;;;;29.55;16.75;;;;;;;9.02;69.34;100882.19;5035292;28;20061;-72
2021/05/06 08:44:40;;;;;;;31.17;18.60;;;;;;;9.05;68.88;100884.78;5020039;28;20057;-73
2021/05/06 08:47:12;;;;;;;32.45;17.92;;;;;;;9.30;68.75;100879.72;5019633;28;20100;-73
2021/05/06 08:49:40;;;;;;;34.28;17.67;;;;;;;9.73;68.19;100872.34;5019414;28;20061;-73
2021/05/06 08:52:09;;;;;;;25.33;14.70;;;;;;;9.40;64.61;100876.81;5018068;28;20507;-72
2021/05/06 08:54:36;;;;;;;24.30;14.50;;;;;;;9.45;64.82;100870.47;5016368;28;20066;-74
2021/05/06 08:57:04;;;;;;;24.63;14.50;;;;;;;9.56;66.07;100867.50;5021516;28;20064;-74
2021/05/06 08:59:32;;;;;;;22.90;13.27;;;;;;;9.31;63.93;100867.28;5017108;28;20073;-73
2021/05/06 09:01:59;;;;;;;27.27;14.32;;;;;;;9.18;64.94;100872.06;5019527;28;20361;-73
2021/05/06 09:04:26;;;;;;;27.08;11.57;;;;;;;9.16;65.50;100871.22;5017629;28;20131;-73
2021/05/06 09:06:54;;;;;;;25.63;14.45;;;;;;;9.07;65.83;100871.44;5017739;28;20438;-73
2021/05/06 09:09:23;;;;;;;33.83;16.83;;;;;;;8.90;68.61;100880.72;5015422;28;20064;-73
2021/05/06 09:11:52;;;;;;;24.58;14.23;;;;;;;8.48;68.48;100882.59;5015456;28;20153;-72
2021/05/06 09:14:20;;;;;;;23.85;12.90;;;;;;;7.50;68.41;100901.41;5018623;28;20180;-70
2021/05/06 09:16:47;;;;;;;28.08;16.30;;;;;;;6.60;72.14;100909.97;5014835;28;20061;-70
2021/05/06 09:19:16;;;;;;;24.33;14.55;;;;;;;5.99;74.09;100917.81;5020490;28;20057;-71
2021/05/06 09:21:46;;;;;;;24.50;12.10;;;;;;;5.69;72.49;100913.72;5016251;28;20160;-71
2021/05/06 09:24:19;;;;;;;22.55;11.00;;;;;;;5.50;72.37;100913.00;5031678;28;20135;-71
2021/05/06 09:26:47;;;;;;;20.95;10.32;;;;;;;5.63;73.47;100913.78;5012855;28;20484;-71
2021/05/06 09:29:29;;;;;;;19.20;10.20;;;;;;;5.78;73.53;100916.25;5020410;28;20061;-69
2021/05/06 09:32:09;;;;;;;19.45;11.00;;;;;;;5.65;73.67;100917.28;5015102;28;20208;-72
2021/05/06 09:34:37;;;;;;;16.88;10.73;;;;;;;5.84;74.36;100916.19;5017620;28;20108;-72
2021/05/06 09:37:07;;;;;;;19.27;11.45;;;;;;;5.96;75.27;100916.09;5017138;28;20156;-71
2021/05/06 09:39:35;;;;;;;15.85;9.07;;;;;;;6.12;75.52;100911.47;5018887;28;20065;-71
2021/05/06 09:42:09;;;;;;;14.48;9.10;;;;;;;6.13;73.92;100907.03;5031795;28;20081;-72
2021/05/06 09:44:50;;;;;;;15.68;9.10;;;;;;;6.36;74.26;100896.16;5019240;28;20065;-72
2021/05/06 09:47:18;;;;;;;19.05;8.88;;;;;;;6.31;73.94;100898.84;5029920;28;20112;-72
2021/05/06 09:49:46;;;;;;;17.55;9.77;;;;;;;6.31;74.15;100896.19;5018529;28;20148;-72
2021/05/06 09:52:14;;;;;;;16.33;8.35;;;;;;;6.45;74.99;100895.13;5015837;28;20054;-72
2021/05/06 09:54:49;;;;;;;14.10;7.63;;;;;;;6.34;73.65;100893.50;5019005;28;20074;-72
2021/05/06 09:57:27;;;;;;;14.85;7.65;;;;;;;6.46;74.21;100899.56;5015895;28;20068;-72
2021/05/06 10:00:15;;;;;;;13.60;7.13;;;;;;;6.61;73.61;100890.50;5021614;28;20079;-72
2021/05/06 10:02:43;;;;;;;13.18;7.15;;;;;;;6.69;73.17;100881.53;5020685;28;20196;-72
2021/05/06 10:05:21;;;;;;;15.77;7.57;;;;;;;6.99;73.84;100883.72;5023408;28;20144;-72
2021/05/06 10:07:53;;;;;;;17.73;8.13;;;;;;;7.10;72.45;100884.44;5019850;28;20061;-72
2021/05/06 10:10:23;;;;;;;13.63;7.75;;;;;;;7.96;72.79;100872.16;5021523;28;20061;-72
2021/05/06 10:12:51;;;;;;;19.08;8.07;;;;;;;8.51;69.46;100864.81;5020512;28;20160;-72
2021/05/06 10:15:20;;;;;;;19.92;10.15;;;;;;;8.69;69.58;100858.19;5021910;28;20282;-72
2021/05/06 10:17:47;;;;;;;17.65;9.55;;;;;;;9.27;68.09;100854.97;5023727;28;20057;-72
2021/05/06 10:20:15;;;;;;;17.42;9.02;;;;;;;9.04;68.56;100852.88;5019618;28;20116;-72
2021/05/06 10:22:42;;;;;;;16.77;7.70;;;;;;;9.63;66.62;100857.53;5023323;28;20141;-72
2021/05/06 10:25:09;;;;;;;17.58;8.10;;;;;;;10.01;65.89;100845.78;5020508;28;20095;-72
2021/05/06 10:27:40;;;;;;;15.68;7.50;;;;;;;10.33;63.78;100829.75;5020876;28;20152;-71
2021/05/06 10:30:12;;;;;;;17.30;9.02;;;;;;;10.01;63.83;100839.56;5017162;28;20058;-71
2021/05/06 10:32:40;;;;;;;15.95;8.00;;;;;;;9.21;66.80;100842.69;5016496;28;20107;-72
2021/05/06 10:35:09;;;;;;;14.23;7.30;;;;;;;10.00;66.01;100830.72;5016852;28;20500;-71
2021/05/06 10:37:39;;;;;;;14.05;8.73;;;;;;;10.80;65.72;100830.03;5018619;28;20060;-72
2021/05/06 10:40:24;;;;;;;18.10;8.57;;;;;;;11.18;61.62;100818.03;5016105;28;20057;-72
2021/05/06 10:42:52;;;;;;;18.80;8.88;;;;;;;10.87;59.13;100825.38;5016628;28;20358;-70
2021/05/06 10:45:34;;;;;;;18.67;8.48;;;;;;;10.88;61.29;100819.09;5015479;28;20057;-70
2021/05/06 10:48:02;;;;;;;15.13;9.02;;;;;;;10.44;57.19;100819.63;5017928;28;20062;-70
2021/05/06 10:50:41;;;;;;;14.18;7.60;;;;;;;9.94;60.08;100833.53;5017568;28;20400;-71
2021/05/06 10:53:09;;;;;;;16.25;8.40;;;;;;;10.05;63.51;100834.09;5019105;28;20173;-81
2021/05/06 10:55:48;;;;;;;17.02;8.82;;;;;;;10.11;62.33;100833.03;5016109;28;20148;-71
2021/05/06 10:58:33;;;;;;;18.30;8.55;;;;;;;10.02;62.05;100842.19;5017960;28;20102;-71
2021/05/06 11:01:18;;;;;;;13.30;6.18;;;;;;;9.23;62.70;100846.19;5014541;28;20420;-77
2021/05/06 11:04:00;;;;;;;;;;;;;;;9.34;63.69;100838.78;5024053;28;20124;-79
2021/05/06 11:06:45;;;;;;;9.50;4.72;;;;;;;9.21;64.51;100845.38;5016946;28;19937;-70
2021/05/06 11:09:57;;;;;;;13.13;5.80;;;;;;;8.75;62.90;100839.41;5016766;28;20057;-71
2021/05/06 11:12:29;;;;;;;10.93;6.15;;;;;;;8.36;64.33;100834.09;5015131;28;20111;-69
2021/05/06 11:15:31;;;;;;;11.30;5.65;;;;;;;8.09;67.61;100845.31;5017950;28;20359;-82
2021/05/06 11:18:02;;;;;;;10.88;6.28;;;;;;;8.09;67.54;100840.00;5019300;28;20080;-79
2021/05/06 11:20:50;;;;;;;11.07;4.78;;;;;;;7.82;64.45;100826.44;5019802;28;20188;-77
2021/05/06 11:23:34;;;;;;;9.48;4.22;;;;;;;7.70;65.22;100835.53;5022784;28;20169;-77
2021/05/06 11:26:17;;;;;;;14.68;4.10;;;;;;;7.72;60.09;100825.72;5032881;28;20332;-77
2021/05/06 11:28:49;;;;;;;10.88;3.38;;;;;;;7.80;61.17;100828.25;5020290;28;20053;-77
2021/05/06 11:31:37;;;;;;;7.63;3.63;;;;;;;7.70;63.87;100827.56;5016457;28;20283;-69
2021/05/06 11:34:31;;;;;;;10.02;4.15;;;;;;;7.86;65.63;100823.66;5016292;28;20193;-70
2021/05/06 11:37:19;;;;;;;8.88;4.55;;;;;;;7.86;64.65;100828.09;5013961;28;20237;-70
2021/05/06 11:39:53;;;;;;;9.15;4.85;;;;;;;8.16;65.38;100831.88;5019666;28;20068;-70
2021/05/06 11:42:21;;;;;;;10.55;4.88;;;;;;;8.42;64.87;100827.75;5018392;28;20891;-70
2021/05/06 11:45:24;;;;;;;8.98;4.50;;;;;;;8.76;63.34;100829.63;5022302;28;20054;-77
2021/05/06 11:47:53;;;;;;;9.25;5.00;;;;;;;8.60;63.04;100822.03;5014827;28;20061;-76
2021/05/06 11:50:33;;;;;;;7.95;4.13;;;;;;;8.62;63.22;100814.03;5021458;28;20471;-76
2021/05/06 11:53:01;;;;;;;7.35;4.15;;;;;;;8.92;61.31;100807.06;5018521;28;20058;-76
2021/05/06 11:55:41;;;;;;;8.50;4.60;;;;;;;9.03;58.81;100805.91;5020979;28;20073;-76
2021/05/06 11:58:09;;;;;;;19.60;9.30;;;;;;;9.45;61.80;100813.63;5017668;28;20063;-76
2021/05/06 12:00:39;;;;;;;10.95;5.10;;;;;;;9.47;61.03;100806.50;5036105;28;20093;-76
2021/05/06 12:03:08;;;;;;;8.45;4.65;;;;;;;9.30;58.48;100809.63;5018289;28;20068;-76
2021/05/06 12:05:54;;;;;;;14.32;5.00;;;;;;;9.64;57.40;100803.34;5021319;28;20152;-75
2021/05/06 12:08:24;;;;;;;9.80;5.63;;;;;;;9.99;57.62;100798.75;5013051;28;20507;-77
2021/05/06 12:10:54;;;;;;;9.30;4.28;;;;;;;10.00;56.57;100793.38;5019743;28;20053;-76
2021/05/06 12:13:25;;;;;;;9.27;4.50;;;;;;;9.94;56.54;100787.38;5032595;28;20360;-76
2021/05/06 12:15:52;;;;;;;11.70;5.43;;;;;;;10.48;55.98;100783.06;5019241;28;20131;-76
2021/05/06 12:18:21;;;;;;;17.13;6.65;;;;;;;10.67;54.24;100786.84;5029382;28;20389;-75
2021/05/06 12:20:54;;;;;;;8.85;4.05;;;;;;;11.05;54.79;100776.69;5020502;28;20269;-76
2021/05/06 12:23:23;;;;;;;10.93;5.57;;;;;;;11.40;55.10;100763.84;5019432;28;20064;-77
2021/05/06 12:25:51;;;;;;;9.52;4.85;;;;;;;11.78;52.70;100764.22;5017636;28;20148;-77
2021/05/06 12:28:18;;;;;;;11.05;5.00;;;;;;;12.20;51.92;100759.97;5034464;28;20058;-76
2021/05/06 12:30:46;;;;;;;8.93;4.75;;;;;;;11.88;52.59;100757.56;5019423;28;20122;-76
2021/05/06 12:33:13;;;;;;;10.13;5.32;;;;;;;12.02;51.72;100753.53;5020834;28;20058;-76
2021/05/06 12:35:52;;;;;;;12.98;6.10;;;;;;;12.36;52.25;100745.03;5016935;28;20058;-77
2021/05/06 12:38:27;;;;;;;18.17;7.40;;;;;;;11.74;50.34;100751.91;5020047;28;20111;-76
2021/05/06 12:40:55;;;;;;;11.57;6.05;;;;;;;11.74;48.27;100741.22;5016410;28;20344;-79
2021/05/06 12:43:28;;;;;;;13.57;5.22;;;;;;;11.77;50.14;100736.59;5035918;28;20448;-71
2021/05/06 12:46:03;;;;;;;9.57;4.93;;;;;;;11.78;48.61;100732.13;5015928;28;20065;-71
2021/05/06 12:48:41;;;;;;;8.93;5.05;;;;;;;11.26;47.18;100732.31;5020017;28;20057;-73
2021/05/06 12:51:12;;;;;;;12.48;5.10;;;;;;;11.70;49.41;100735.13;5014846;28;20061;-71
2021/05/06 12:54:02;;;;;;;12.65;5.45;;;;;;;11.74;46.87;100723.34;5034301;28;20436;-76
2021/05/06 12:56:31;;;;;;;9.93;4.65;;;;;;;12.05;48.67;100730.19;5017602;28;20061;-72
2021/05/06 12:58:58;;;;;;;9.93;4.75;;;;;;;11.62;46.48;100733.66;5021194;28;20175;-73
2021/05/06 13:01:30;;;;;;;15.13;5.85;;;;;;;12.32;48.51;100724.69;5017950;28;20083;-72
2021/05/06 13:03:59;;;;;;;8.98;4.10;;;;;;;12.40;45.90;100725.25;5019280;28;20428;-72
2021/05/06 13:06:34;;;;;;;9.13;4.30;;;;;;;12.45;45.94;100731.28;5015025;28;20630;-72
2021/05/06 13:09:02;;;;;;;8.73;4.32;;;;;;;12.62;45.55;100719.84;5028314;28;20103;-73
2021/05/06 13:11:30;;;;;;;9.52;4.25;;;;;;;12.99;46.18;100720.06;5033834;28;20403;-73
2021/05/06 13:13:59;;;;;;;11.00;4.82;;;;;;;12.46;44.79;100714.28;5020205;28;20088;-73
2021/05/06 13:16:38;;;;;;;10.73;4.70;;;;;;;12.48;44.30;100711.53;5017276;28;20061;-77
2021/05/06 13:19:06;;;;;;;10.35;4.57;;;;;;;12.50;45.67;100712.34;5019686;28;20411;-77
2021/05/06 13:21:35;;;;;;;9.60;4.70;;;;;;;13.31;44.38;100699.00;5017886;28;20064;-76
2021/05/06 13:24:04;;;;;;;9.82;4.95;;;;;;;13.36;42.30;100694.34;5019244;28;20057;-76
2021/05/06 13:26:32;;;;;;;10.35;4.50;;;;;;;13.04;44.42;100696.63;5017180;28;20064;-77
2021/05/06 13:29:01;;;;;;;8.27;4.65;;;;;;;12.63;43.42;100699.31;5021249;28;20057;-73
2021/05/06 13:31:32;;;;;;;9.48;4.45;;;;;;;12.45;42.09;100695.63;5016651;28;20469;-73
2021/05/06 13:34:15;;;;;;;9.90;4.72;;;;;;;12.50;43.20;100690.94;5019660;28;20128;-73
2021/05/06 13:36:44;;;;;;;10.13;4.40;;;;;;;12.05;42.85;100692.75;5017771;28;20061;-73
2021/05/06 13:39:13;;;;;;;9.95;4.40;;;;;;;11.45;43.50;100697.75;5018992;28;20053;-73
2021/05/06 13:41:43;;;;;;;8.82;4.55;;;;;;;12.02;42.92;100692.03;5019667;28;20249;-74
2021/05/06 13:44:10;;;;;;;9.68;3.90;;;;;;;12.24;42.13;100692.00;5016085;28;20087;-73
2021/05/06 13:46:45;;;;;;;6.65;3.80;;;;;;;12.53;43.47;100688.09;5020375;28;20467;-73
2021/05/06 13:49:13;;;;;;;10.05;4.53;;;;;;;12.18;43.85;100686.94;5013200;28;20072;-73
2021/05/06 13:51:40;;;;;;;11.63;5.32;;;;;;;11.99;42.96;100685.00;5020141;28;20136;-73
2021/05/06 13:54:08;;;;;;;8.85;4.18;;;;;;;12.33;42.99;100687.16;5016172;28;20061;-78
2021/05/06 13:56:35;;;;;;;8.77;4.05;;;;;;;12.43;41.29;100689.44;5021359;28;20425;-79